Elverson, Pennsylvania
Current Conditions -  °F | °C
As of 3:55 AM on Wednesday 22 Oct 2014 (Local Time) from KMQS Reporting Station
Broken Clouds Broken Clouds  
Wind Chill: 52°   Ceiling: 6500
Heat Index: 52°   Visibility: 9mi
Dew Point: 50°   Wind: 8mph
Humidity: 94%   Direction: 10°N
Pressure: 29.86"   Gusts: NA
Location:  40.16°N, 75.83°W
Report Text: KMQS 220755Z AUTO 01007KT 9SM SCT006 SCT046 BKN065 11/10 A2986 RMK AO2 P0001
Loading
Personal Weather Stations






























Interactive Weather Map New forecast layout! Learn more

10-Day Weather Forecast

Advertisements
Track Severe Weather on mobile